Time;durP1;ratioP1;P1;durP2;ratioP2;P2;SDS_P1;SDS_P2;PMS_P1;PMS_P2;Temp;Humidity;BMP_temperature;BMP_pressure;BME280_temperature;BME280_humidity;BME280_pressure;Samples;Min_cycle;Max_cycle;Signal;HPM_P1;HPM_P2
2023/05/01 00:00:17;;;;;;;5.35;4.30;;;;;;;7.63;100.00;95725.13;1038398;28;20118;-73
2023/05/01 00:00:48;;;;;;;5.07;4.30;;;;;;;7.61;100.00;95714.13;1034052;28;20026;-74
2023/05/01 00:01:18;;;;;;;6.00;4.53;;;;;;;7.64;100.00;95713.63;1029653;28;20062;-73
2023/05/01 00:01:49;;;;;;;6.22;4.32;;;;;;;7.65;100.00;95715.22;1026066;28;20019;-73
2023/05/01 00:02:19;;;;;;;7.30;4.55;;;;;;;7.64;100.00;95715.47;1018426;29;20030;-74
2023/05/01 00:02:50;;;;;;;6.82;4.25;;;;;;;7.66;100.00;95721.25;1030117;28;20031;-72
2023/05/01 00:03:20;;;;;;;7.05;4.43;;;;;;;7.65;100.00;95712.63;1034180;28;20642;-74
2023/05/01 00:03:51;;;;;;;5.03;3.60;;;;;;;7.68;100.00;95712.13;1034590;28;20490;-73
2023/05/01 00:04:22;;;;;;;7.18;4.65;;;;;;;7.67;100.00;95715.75;1033542;28;20045;-74
2023/05/01 00:04:52;;;;;;;6.07;4.05;;;;;;;7.66;100.00;95711.56;1022190;28;20098;-74
2023/05/01 00:05:23;;;;;;;4.88;4.20;;;;;;;7.69;100.00;95718.94;1018479;29;21139;-74
2023/05/01 00:06:01;;;;;;;5.68;3.70;;;;;;;7.69;100.00;95713.69;1022251;29;20034;-72
2023/05/01 00:06:32;;;;;;;5.15;3.90;;;;;;;7.68;100.00;95717.34;1028439;28;20027;-74
2023/05/01 00:07:03;;;;;;;8.02;4.03;;;;;;;7.70;100.00;95715.28;1034050;28;20256;-73
2023/05/01 00:07:34;;;;;;;5.25;3.70;;;;;;;7.68;100.00;95712.13;1030142;28;20490;-73
2023/05/01 00:08:04;;;;;;;4.57;3.60;;;;;;;7.68;100.00;95711.31;1026217;28;20031;-73
2023/05/01 00:08:35;;;;;;;5.15;3.65;;;;;;;7.66;100.00;95702.97;1025665;28;20035;-72
2023/05/01 00:09:06;;;;;;;4.13;3.33;;;;;;;7.65;100.00;95706.63;1025975;28;20420;-73
2023/05/01 00:09:36;;;;;;;6.65;3.78;;;;;;;7.67;100.00;95707.13;1022945;28;20086;-74
2023/05/01 00:10:07;;;;;;;6.15;4.38;;;;;;;7.65;100.00;95707.41;1018248;28;20083;-73
2023/05/01 00:10:37;;;;;;;5.82;4.05;;;;;;;7.65;100.00;95699.56;1018388;29;20107;-74
2023/05/01 00:11:11;;;;;;;4.80;3.88;;;;;;;7.63;100.00;95699.00;1018493;28;20020;-75
2023/05/01 00:11:42;;;;;;;4.85;3.75;;;;;;;7.66;100.00;95705.56;1022744;28;20043;-74
2023/05/01 00:12:12;;;;;;;8.02;3.60;;;;;;;7.67;100.00;95709.75;1026462;28;20601;-74
2023/05/01 00:12:43;;;;;;;4.38;3.35;;;;;;;7.68;100.00;95706.91;1022147;29;20035;-73
2023/05/01 00:13:13;;;;;;;4.35;3.35;;;;;;;7.67;100.00;95699.31;1024600;28;20034;-74
2023/05/01 00:13:44;;;;;;;4.32;3.58;;;;;;;7.67;100.00;95709.75;1022236;29;20027;-73
2023/05/01 00:14:14;;;;;;;4.05;3.65;;;;;;;7.68;100.00;95712.13;1018153;29;20038;-74
2023/05/01 00:14:45;;;;;;;8.38;3.85;;;;;;;7.67;100.00;95701.91;1020837;28;20030;-73
2023/05/01 00:15:16;;;;;;;5.03;4.47;;;;;;;7.66;100.00;95698.53;1025978;28;20039;-74
2023/05/01 00:15:46;;;;;;;6.63;3.55;;;;;;;7.61;100.00;95701.06;1025986;28;20023;-73
2023/05/01 00:16:17;;;;;;;3.85;3.45;;;;;;;7.65;100.00;95707.41;1022726;28;20271;-74
2023/05/01 00:16:47;;;;;;;4.78;3.70;;;;;;;7.66;100.00;95698.53;1020934;28;20420;-73
2023/05/01 00:17:18;;;;;;;5.22;3.83;;;;;;;7.67;100.00;95697.47;1025941;28;20030;-74
2023/05/01 00:17:48;;;;;;;5.45;3.50;;;;;;;7.67;100.00;95710.53;1026348;28;20027;-73
2023/05/01 00:18:19;;;;;;;4.53;3.28;;;;;;;7.61;100.00;95697.66;1027522;28;20042;-74
2023/05/01 00:18:49;;;;;;;4.90;3.70;;;;;;;7.66;100.00;95701.13;1025747;28;20027;-74
2023/05/01 00:19:20;;;;;;;6.15;3.70;;;;;;;7.68;100.00;95701.69;1026091;28;20027;-74
2023/05/01 00:19:52;;;;;;;5.07;3.60;;;;;;;7.70;100.00;95702.22;1025927;28;20046;-74
2023/05/01 00:20:26;;;;;;;4.05;3.30;;;;;;;7.68;100.00;95695.66;1034679;28;20044;-74
2023/05/01 00:20:56;;;;;;;5.53;3.55;;;;;;;7.67;100.00;95699.31;1030043;28;20377;-74
2023/05/01 00:21:27;;;;;;;5.30;3.60;;;;;;;7.68;100.00;95699.06;1026658;28;20262;-74
2023/05/01 00:21:58;;;;;;;6.00;3.58;;;;;;;7.66;100.00;95693.31;1030112;28;20125;-74
2023/05/01 00:22:28;;;;;;;5.70;4.03;;;;;;;7.68;100.00;95696.47;1026327;28;20283;-74
2023/05/01 00:22:59;;;;;;;6.93;4.75;;;;;;;7.63;100.00;95699.00;1022164;29;20031;-74
2023/05/01 00:23:29;;;;;;;4.75;3.53;;;;;;;7.63;100.00;95690.38;1028410;28;20030;-73
2023/05/01 00:24:00;;;;;;;4.10;3.67;;;;;;;7.68;100.00;95696.47;1034161;28;20683;-74
2023/05/01 00:24:30;;;;;;;6.05;3.70;;;;;;;7.68;100.00;95698.25;1034204;28;20029;-74
2023/05/01 00:25:01;;;;;;;4.53;3.17;;;;;;;7.67;100.00;95700.09;1025921;28;20097;-74
2023/05/01 00:25:31;;;;;;;8.07;3.63;;;;;;;7.64;100.00;95695.34;1026234;28;20038;-74
2023/05/01 00:26:01;;;;;;;7.00;4.03;;;;;;;7.66;100.00;95695.91;1022115;28;20834;-74
2023/05/01 00:26:32;;;;;;;5.10;3.30;;;;;;;7.66;100.00;95693.31;1022075;28;20095;-74
2023/05/01 00:27:02;;;;;;;5.00;3.30;;;;;;;7.67;100.00;95700.09;1022261;28;20473;-74
2023/05/01 00:27:33;;;;;;;4.43;3.50;;;;;;;7.67;100.00;95696.69;1026322;28;20042;-74
2023/05/01 00:28:05;;;;;;;4.57;3.70;;;;;;;7.67;100.00;95694.09;1025863;28;20031;-74
2023/05/01 00:28:35;;;;;;;4.75;3.88;;;;;;;7.66;100.00;95695.91;1022030;28;20882;-74
2023/05/01 00:29:06;;;;;;;4.55;3.90;;;;;;;7.66;100.00;95693.31;1025825;28;20262;-74
2023/05/01 00:29:36;;;;;;;7.20;3.58;;;;;;;7.66;100.00;95695.91;1022521;28;20477;-74
2023/05/01 00:30:08;;;;;;;7.07;4.00;;;;;;;7.67;100.00;95694.88;1030475;28;20038;-74
2023/05/01 00:30:39;;;;;;;5.32;3.92;;;;;;;7.66;100.00;95693.31;1034161;28;20022;-74
2023/05/01 00:31:10;;;;;;;4.90;3.90;;;;;;;7.66;100.00;95698.53;1034123;28;20275;-74
2023/05/01 00:31:41;;;;;;;4.63;3.88;;;;;;;7.64;100.00;95697.97;1029999;28;20300;-73
2023/05/01 00:32:11;;;;;;;5.40;4.03;;;;;;;7.60;100.00;95686.44;1021922;29;20781;-74
2023/05/01 00:32:42;;;;;;;4.78;3.97;;;;;;;7.67;100.00;95694.88;1022175;29;20267;-73
2023/05/01 00:33:12;;;;;;;5.50;4.28;;;;;;;7.65;100.00;95691.72;1017955;29;20019;-73
2023/05/01 00:33:43;;;;;;;4.78;4.00;;;;;;;7.66;100.00;95688.06;1022101;29;20448;-74
2023/05/01 00:34:13;;;;;;;4.30;3.90;;;;;;;7.62;100.00;95681.00;1022143;28;20030;-74
2023/05/01 00:34:46;;;;;;;5.60;4.18;;;;;;;7.65;100.00;95689.13;1030299;28;20026;-74
2023/05/01 00:35:17;;;;;;;7.05;4.25;;;;;;;7.66;100.00;95689.91;1034347;28;20472;-74
2023/05/01 00:35:47;;;;;;;4.82;3.63;;;;;;;7.67;100.00;95691.47;1034263;28;20267;-73
2023/05/01 00:36:18;;;;;;;4.55;3.78;;;;;;;7.60;100.00;95683.81;1029384;28;20022;-74
2023/05/01 00:36:48;;;;;;;5.47;3.47;;;;;;;7.67;100.00;95689.66;1026259;28;20027;-73
2023/05/01 00:37:18;;;;;;;4.38;3.75;;;;;;;7.67;100.00;95689.66;1021979;28;20468;-73
2023/05/01 00:37:49;;;;;;;6.00;4.07;;;;;;;7.65;100.00;95689.13;1026284;28;20031;-73
2023/05/01 00:38:20;;;;;;;7.03;3.90;;;;;;;7.62;100.00;95678.38;1034097;28;20022;-74
2023/05/01 00:38:51;;;;;;;5.05;3.55;;;;;;;7.67;100.00;95688.84;1033489;28;20470;-74
2023/05/01 00:39:21;;;;;;;4.50;3.67;;;;;;;7.63;100.00;95683.34;1037829;28;20029;-74
2023/05/01 00:39:52;;;;;;;5.18;3.97;;;;;;;7.64;100.00;95684.91;1034160;28;20025;-73
2023/05/01 00:40:22;;;;;;;5.07;4.05;;;;;;;7.66;100.00;95687.28;1025766;28;20465;-74
2023/05/01 00:40:53;;;;;;;9.82;4.00;;;;;;;7.64;100.00;95684.13;1022418;28;20034;-73
2023/05/01 00:41:23;;;;;;;4.85;3.83;;;;;;;7.61;100.00;95679.38;1026163;28;20018;-74
2023/05/01 00:41:54;;;;;;;5.35;4.15;;;;;;;7.66;100.00;95687.28;1030330;28;20050;-73
2023/05/01 00:42:25;;;;;;;4.93;3.97;;;;;;;7.66;100.00;95688.06;1025850;28;20033;-73
2023/05/01 00:42:55;;;;;;;4.88;3.58;;;;;;;7.62;100.00;95681.78;1022263;29;20269;-72
2023/05/01 00:43:26;;;;;;;5.00;3.83;;;;;;;7.66;100.00;95682.84;1022808;28;20097;-72
2023/05/01 00:43:57;;;;;;;5.03;3.72;;;;;;;7.65;100.00;95686.50;1026311;28;20022;-72
2023/05/01 00:44:27;;;;;;;4.55;3.80;;;;;;;7.66;100.00;95685.47;1030031;28;20025;-74
2023/05/01 00:44:58;;;;;;;4.55;3.33;;;;;;;7.67;100.00;95684.41;1034300;28;20018;-74
2023/05/01 00:45:28;;;;;;;6.70;3.60;;;;;;;7.67;100.00;95689.66;1030161;28;20062;-74
2023/05/01 00:45:58;;;;;;;6.57;4.32;;;;;;;7.66;100.00;95692.50;1030268;28;20555;-74
2023/05/01 00:46:29;;;;;;;6.97;4.30;;;;;;;7.60;100.00;95672.59;1030304;28;20029;-74
2023/05/01 00:47:01;;;;;;;6.55;4.00;;;;;;;7.64;100.00;95684.91;1029833;28;20061;-74
2023/05/01 00:47:32;;;;;;;5.75;3.72;;;;;;;7.59;100.00;95671.81;1030675;28;20030;-75
2023/05/01 00:48:04;;;;;;;5.45;3.70;;;;;;;7.64;100.00;95684.91;1029971;28;20266;-72
2023/05/01 00:48:34;;;;;;;6.30;4.50;;;;;;;7.65;100.00;95678.66;1029484;28;20281;-73
2023/05/01 00:49:05;;;;;;;4.22;3.70;;;;;;;7.65;100.00;95680.50;1026229;28;20326;-72
2023/05/01 00:49:35;;;;;;;6.47;4.57;;;;;;;7.62;100.00;95675.75;1022295;28;20505;-74
2023/05/01 00:50:06;;;;;;;5.70;4.30;;;;;;;7.65;100.00;95681.28;1026211;28;20704;-74
2023/05/01 00:50:37;;;;;;;4.22;3.72;;;;;;;7.64;100.00;95679.69;1023503;28;20034;-71
2023/05/01 00:51:07;;;;;;;4.18;3.78;;;;;;;7.60;100.00;95678.59;1026050;28;20400;-74
2023/05/01 00:51:38;;;;;;;5.63;4.22;;;;;;;7.61;100.00;95677.56;1030204;28;20025;-74
2023/05/01 00:52:12;;;;;;;5.78;3.80;;;;;;;7.62;100.00;95678.38;1026995;28;20030;-74
2023/05/01 00:52:42;;;;;;;5.95;3.78;;;;;;;7.55;100.00;95666.28;1030020;28;20533;-72
2023/05/01 00:53:12;;;;;;;5.03;3.92;;;;;;;7.61;100.00;95676.78;1030136;28;20257;-75
2023/05/01 00:53:43;;;;;;;5.03;3.90;;;;;;;7.57;100.00;95671.25;1026033;28;20026;-72
2023/05/01 00:54:13;;;;;;;4.65;3.75;;;;;;;7.60;100.00;95681.22;1026203;28;20432;-74
2023/05/01 00:54:44;;;;;;;6.07;3.85;;;;;;;7.56;100.00;95672.31;1026113;28;20027;-72
2023/05/01 00:55:15;;;;;;;6.57;3.78;;;;;;;7.56;100.00;95672.31;1021740;29;20015;-72
2023/05/01 00:55:45;;;;;;;5.93;4.05;;;;;;;7.57;100.00;95677.25;1018411;28;20637;-73
2023/05/01 00:56:16;;;;;;;4.93;3.90;;;;;;;7.50;100.00;95666.22;1026052;28;20022;-75
2023/05/01 00:56:46;;;;;;;5.65;3.83;;;;;;;7.55;100.00;95670.72;1026316;28;20703;-73
2023/05/01 00:57:21;;;;;;;5.45;3.92;;;;;;;7.56;100.00;95672.31;1021948;28;20039;-73
2023/05/01 00:57:52;;;;;;;4.97;3.42;;;;;;;7.54;100.00;95674.34;1025896;28;20023;-74
2023/05/01 00:58:23;;;;;;;4.70;3.97;;;;;;;7.54;100.00;95674.34;1026342;28;20254;-74
2023/05/01 00:58:53;;;;;;;5.95;3.90;;;;;;;7.49;100.00;95663.88;1029269;28;20266;-73
2023/05/01 00:59:24;;;;;;;5.85;3.88;;;;;;;7.53;100.00;95668.34;1025533;28;20018;-73
2023/05/01 00:59:54;;;;;;;4.75;3.72;;;;;;;7.54;100.00;95669.13;1026360;28;20026;-74
2023/05/01 01:00:25;;;;;;;5.82;3.53;;;;;;;7.53;100.00;95670.19;1026004;28;20035;-72
2023/05/01 01:00:55;;;;;;;5.72;4.18;;;;;;;7.52;100.00;95672.00;1026072;28;20019;-72
2023/05/01 01:01:27;;;;;;;9.30;4.22;;;;;;;7.52;100.00;95674.63;1029988;28;20065;-74
2023/05/01 01:01:58;;;;;;;4.38;3.90;;;;;;;7.52;100.00;95671.22;1026034;28;20027;-75
2023/05/01 01:02:28;;;;;;;6.00;4.00;;;;;;;7.52;100.00;95666.00;1022637;29;20275;-74
2023/05/01 01:02:58;;;;;;;6.15;3.85;;;;;;;7.46;100.00;95662.53;1022230;29;20022;-74
2023/05/01 01:03:30;;;;;;;5.28;3.63;;;;;;;7.46;100.00;95661.75;1018070;29;20039;-73
2023/05/01 01:04:00;;;;;;;6.05;4.35;;;;;;;7.50;100.00;95668.06;1014489;29;20484;-75
2023/05/01 01:04:32;;;;;;;6.75;4.05;;;;;;;7.50;100.00;95670.66;1018042;29;20284;-74
2023/05/01 01:05:04;;;;;;;5.78;3.70;;;;;;;7.48;100.00;95670.13;1021931;29;20027;-73
2023/05/01 01:05:37;;;;;;;4.85;3.85;;;;;;;7.45;100.00;95666.19;1021741;29;20267;-75
2023/05/01 01:06:47;;;;;;;5.82;4.60;;;;;;;7.46;100.00;95662.53;1021895;28;20262;-73
2023/05/01 01:07:27;;;;;;;6.15;3.85;;;;;;;7.44;100.00;95663.81;1031833;28;20264;-73
2023/05/01 01:07:57;;;;;;;5.70;4.30;;;;;;;7.41;100.00;95653.84;1039601;28;20021;-74
2023/05/01 01:08:42;;;;;;;7.13;5.03;;;;;;;7.42;100.00;95663.28;1042201;28;20318;-74
2023/05/01 01:09:20;;;;;;;6.05;4.38;;;;;;;7.36;100.00;95651.19;1033790;28;20021;-73
2023/05/01 01:10:17;;;;;;;6.63;4.63;;;;;;;7.39;100.00;95667.16;1036533;28;20362;-73
2023/05/01 01:11:20;;;;;;;7.82;4.30;;;;;;;7.38;100.00;95659.56;1033486;28;20261;-74
2023/05/01 01:12:21;;;;;;;6.75;5.10;;;;;;;7.35;100.00;95654.84;1033837;28;20264;-74
2023/05/01 01:13:13;;;;;;;7.03;4.57;;;;;;;7.31;100.00;95655.31;1029482;28;20253;-73
2023/05/01 01:14:42;;;;;;;6.18;4.18;;;;;;;7.31;100.00;95654.53;1024971;28;20019;-74
2023/05/01 01:15:31;;;;;;;7.35;4.82;;;;;;;7.24;100.00;95649.50;1023580;28;20255;-73
2023/05/01 01:16:23;;;;;;;9.38;4.78;;;;;;;7.25;100.00;95658.91;1021722;29;20302;-74
2023/05/01 01:16:58;;;;;;;6.18;4.72;;;;;;;7.22;100.00;95651.56;1017536;29;20264;-73
2023/05/01 01:17:57;;;;;;;8.50;4.43;;;;;;;7.19;100.00;95651.25;1019817;29;20279;-74
2023/05/01 01:18:41;;;;;;;7.72;4.70;;;;;;;7.21;100.00;95643.97;1024971;28;20258;-73
2023/05/01 01:19:32;;;;;;;7.80;5.22;;;;;;;7.14;100.00;95644.13;1027649;28;20294;-74
2023/05/01 01:20:32;;;;;;;6.43;4.60;;;;;;;7.18;100.00;95645.25;1024535;28;20270;-74
2023/05/01 01:21:17;;;;;;;5.00;4.25;;;;;;;7.16;100.00;95649.91;1020548;29;20274;-74
2023/05/01 01:21:49;;;;;;;10.48;4.90;;;;;;;7.16;100.00;95649.91;1013983;29;20276;-74
2023/05/01 01:22:21;;;;;;;6.47;4.63;;;;;;;7.13;100.00;95647.78;1017745;29;20695;-73
2023/05/01 01:22:58;;;;;;;6.63;4.65;;;;;;;7.07;100.00;95633.88;1014449;29;20766;-73
2023/05/01 01:23:40;;;;;;;5.45;4.20;;;;;;;7.12;100.00;95646.22;1016859;29;20271;-73
2023/05/01 01:24:29;;;;;;;6.93;4.68;;;;;;;7.11;100.00;95641.22;1024440;28;20290;-74
2023/05/01 01:25:21;;;;;;;6.53;4.55;;;;;;;7.10;100.00;95643.06;1027422;28;20341;-73
2023/05/01 01:26:08;;;;;;;7.82;5.38;;;;;;;7.09;100.00;95647.47;1042474;28;20294;-74
2023/05/01 01:26:44;;;;;;;8.32;5.22;;;;;;;7.08;100.00;95645.13;1030893;28;20257;-74
2023/05/01 01:27:33;;;;;;;6.40;4.68;;;;;;;7.06;100.00;95653.19;1034285;28;20277;-74
2023/05/01 01:28:10;;;;;;;7.20;5.18;;;;;;;7.01;100.00;95636.69;1034055;28;20269;-73
2023/05/01 01:29:11;;;;;;;6.78;4.63;;;;;;;7.04;100.00;95644.00;1029509;28;21016;-73
2023/05/01 01:30:00;;;;;;;7.75;4.70;;;;;;;7.03;100.00;95650.28;1031099;28;20906;-73
2023/05/01 01:30:41;;;;;;;6.90;4.65;;;;;;;6.84;100.00;95619.28;1032724;28;20739;-74
2023/05/01 01:31:21;;;;;;;8.40;4.97;;;;;;;7.00;100.00;95646.31;1034170;28;20976;-72
2023/05/01 01:32:13;;;;;;;6.40;4.57;;;;;;;6.98;100.00;95647.63;1026600;28;20946;-72
2023/05/01 01:32:46;;;;;;;8.00;5.40;;;;;;;6.97;100.00;95644.19;1029899;28;20019;-72
2023/05/01 01:34:08;;;;;;;6.15;5.00;;;;;;;6.98;100.00;95645.00;1026137;28;20258;-72
2023/05/01 01:34:53;;;;;;;8.70;4.88;;;;;;;6.96;100.00;95649.66;1020117;28;20347;-72
2023/05/01 01:35:25;;;;;;;11.40;5.18;;;;;;;6.95;100.00;95645.50;1018283;29;20031;-72
2023/05/01 01:36:01;;;;;;;7.07;4.85;;;;;;;6.95;100.00;95655.91;1024664;28;20274;-72
2023/05/01 01:36:40;;;;;;;7.75;5.15;;;;;;;6.94;100.00;95647.31;1023537;28;20355;-73
2023/05/01 01:37:12;;;;;;;8.50;5.32;;;;;;;6.91;100.00;95644.38;1019881;29;20275;-72
2023/05/01 01:37:51;;;;;;;7.80;4.53;;;;;;;6.94;100.00;95654.31;1025009;28;20258;-72
2023/05/01 01:38:23;;;;;;;7.85;4.72;;;;;;;6.87;100.00;95643.28;1029990;28;20264;-72
2023/05/01 01:39:19;;;;;;;6.88;4.72;;;;;;;6.92;100.00;95649.34;1021086;29;20342;-72
2023/05/01 01:40:05;;;;;;;7.32;4.93;;;;;;;6.93;100.00;95650.16;1022029;29;20359;-72
2023/05/01 01:40:38;;;;;;;8.70;5.50;;;;;;;6.92;100.00;95643.34;1024449;28;20270;-72
2023/05/01 01:41:12;;;;;;;7.93;4.72;;;;;;;6.89;100.00;95641.22;1025650;28;20810;-72
2023/05/01 01:41:46;;;;;;;9.23;5.32;;;;;;;6.90;100.00;95648.00;1029913;28;20272;-73
2023/05/01 01:42:21;;;;;;;8.07;4.65;;;;;;;6.88;100.00;95639.66;1022216;28;20314;-72
2023/05/01 01:42:57;;;;;;;7.35;4.70;;;;;;;6.91;100.00;95645.19;1026032;28;20810;-72
2023/05/01 01:43:29;;;;;;;8.48;5.03;;;;;;;6.90;100.00;95648.78;1026361;28;20282;-72
2023/05/01 01:44:04;;;;;;;7.80;5.22;;;;;;;6.84;100.00;95634.94;1018571;28;20256;-73
2023/05/01 01:44:42;;;;;;;7.80;4.85;;;;;;;6.86;100.00;95637.28;1018000;29;20622;-73
2023/05/01 01:45:16;;;;;;;7.10;5.25;;;;;;;6.91;100.00;95639.16;1017736;29;20271;-72
2023/05/01 01:45:47;;;;;;;6.13;4.93;;;;;;;6.83;100.00;95627.31;1020650;29;20765;-72
2023/05/01 01:46:19;;;;;;;7.72;5.18;;;;;;;6.88;100.00;95637.84;1018052;29;20267;-72
2023/05/01 01:46:50;;;;;;;9.63;4.95;;;;;;;6.89;100.00;95641.22;1017959;29;20012;-72
2023/05/01 01:47:30;;;;;;;8.23;5.43;;;;;;;6.84;100.00;95632.31;1024579;28;20426;-72
2023/05/01 01:48:00;;;;;;;8.18;5.88;;;;;;;6.88;100.00;95644.88;1026021;28;20018;-73
2023/05/01 01:48:33;;;;;;;7.93;4.88;;;;;;;6.85;100.00;95644.31;1017832;29;20078;-72
2023/05/01 01:49:05;;;;;;;9.68;4.88;;;;;;;6.87;100.00;95641.44;1021703;29;20497;-72
2023/05/01 01:49:37;;;;;;;7.32;4.50;;;;;;;6.88;100.00;95642.28;1021840;29;20305;-72
2023/05/01 01:50:08;;;;;;;8.00;4.57;;;;;;;6.83;100.00;95630.72;1021965;29;20263;-72
2023/05/01 01:50:39;;;;;;;8.40;4.80;;;;;;;6.87;100.00;95638.84;1022082;29;20392;-72
2023/05/01 01:51:13;;;;;;;5.10;4.10;;;;;;;6.89;100.00;95638.63;1025202;28;20742;-72
2023/05/01 01:51:44;;;;;;;9.95;4.55;;;;;;;6.89;100.00;95636.00;1022134;29;20019;-72
2023/05/01 01:52:14;;;;;;;6.85;4.70;;;;;;;6.88;100.00;95632.63;1017876;29;20270;-72
2023/05/01 01:52:46;;;;;;;6.22;4.72;;;;;;;6.88;100.00;95634.44;1017913;29;20031;-72
2023/05/01 01:53:17;;;;;;;4.28;3.75;;;;;;;6.82;100.00;95625.75;1018032;29;20094;-72
2023/05/01 01:53:50;;;;;;;5.22;4.50;;;;;;;6.89;100.00;95641.22;1021901;29;20366;-72
2023/05/01 01:54:25;;;;;;;6.47;4.28;;;;;;;6.87;100.00;95638.06;1019895;29;20031;-73
2023/05/01 01:55:07;;;;;;;6.18;4.65;;;;;;;6.80;100.00;95623.38;1021897;29;20266;-71
2023/05/01 01:55:38;;;;;;;7.60;4.75;;;;;;;6.87;100.00;95631.03;1026004;28;20274;-72
2023/05/01 01:56:08;;;;;;;5.25;4.15;;;;;;;6.82;100.00;95621.31;1026362;28;20487;-72
2023/05/01 01:56:39;;;;;;;6.88;4.38;;;;;;;6.89;100.00;95630.78;1025901;28;20019;-73
2023/05/01 01:57:10;;;;;;;5.82;4.22;;;;;;;6.81;100.00;95622.38;1021906;29;20110;-72
2023/05/01 01:57:43;;;;;;;4.82;3.88;;;;;;;6.87;100.00;95632.84;1026522;28;20263;-71
2023/05/01 01:58:15;;;;;;;7.25;4.32;;;;;;;6.87;100.00;95633.63;1025987;28;20341;-71
2023/05/01 01:58:45;;;;;;;5.93;4.22;;;;;;;6.85;100.00;95628.66;1018380;29;20267;-72
2023/05/01 01:59:16;;;;;;;6.68;4.18;;;;;;;6.85;100.00;95628.66;1017754;29;20259;-71
2023/05/01 01:59:46;;;;;;;9.07;4.60;;;;;;;6.85;100.00;95630.50;1025825;28;20018;-71
2023/05/01 02:00:17;;;;;;;7.30;4.53;;;;;;;6.87;100.00;95622.41;1025951;28;20022;-71
2023/05/01 02:00:47;;;;;;;5.72;3.78;;;;;;;6.80;100.00;95618.16;1018067;29;20016;-71
2023/05/01 02:01:19;;;;;;;5.60;4.03;;;;;;;6.80;100.00;95620.75;1024273;28;20083;-71
2023/05/01 02:01:50;;;;;;;6.88;4.95;;;;;;;6.87;100.00;95631.03;1025849;28;20022;-70
2023/05/01 02:02:20;;;;;;;4.63;4.07;;;;;;;6.87;100.00;95627.63;1021946;29;20334;-71
2023/05/01 02:02:51;;;;;;;6.07;4.40;;;;;;;6.80;100.00;95623.38;1021908;29;20055;-71
2023/05/01 02:03:21;;;;;;;7.28;4.43;;;;;;;6.87;100.00;95627.63;1022009;29;20362;-71
2023/05/01 02:03:52;;;;;;;4.57;3.90;;;;;;;6.87;100.00;95628.41;1025974;28;20031;-71
2023/05/01 02:04:22;;;;;;;6.75;4.38;;;;;;;6.87;100.00;95628.41;1026037;28;20045;-71
2023/05/01 02:04:52;;;;;;;6.28;3.95;;;;;;;6.80;100.00;95615.56;1025768;28;20067;-71
2023/05/01 02:05:23;;;;;;;5.00;4.05;;;;;;;6.86;100.00;95626.84;1026175;28;20043;-71
2023/05/01 02:05:53;;;;;;;6.50;4.47;;;;;;;6.85;100.00;95626.06;1029822;28;20512;-71
2023/05/01 02:06:24;;;;;;;5.78;4.25;;;;;;;6.84;100.00;95627.09;1033504;28;20029;-70
2023/05/01 02:06:56;;;;;;;7.43;3.88;;;;;;;6.78;100.00;95615.03;1026255;28;20019;-71
2023/05/01 02:07:27;;;;;;;7.55;4.10;;;;;;;6.84;100.00;95623.69;1025913;28;20045;-71
2023/05/01 02:07:57;;;;;;;6.25;4.53;;;;;;;6.79;100.00;95619.19;1029968;28;20895;-72
2023/05/01 02:08:28;;;;;;;5.80;4.18;;;;;;;6.84;100.00;95628.91;1029807;28;20347;-71
2023/05/01 02:08:59;;;;;;;5.68;3.85;;;;;;;6.78;100.00;95620.22;1033325;28;20061;-71
2023/05/01 02:09:30;;;;;;;4.53;3.70;;;;;;;6.76;100.00;95614.47;1025986;28;20018;-70
2023/05/01 02:10:01;;;;;;;4.63;3.80;;;;;;;6.82;100.00;95626.53;1017938;29;20323;-72
2023/05/01 02:10:31;;;;;;;6.30;4.50;;;;;;;6.82;100.00;95618.72;1021879;29;20042;-71
2023/05/01 02:11:02;;;;;;;5.05;4.07;;;;;;;6.81;100.00;95619.75;1025993;28;20019;-70
2023/05/01 02:11:32;;;;;;;4.88;4.07;;;;;;;6.80;100.00;95614.75;1025694;28;20018;-70
2023/05/01 02:12:04;;;;;;;5.38;4.22;;;;;;;6.78;100.00;95614.22;1022028;29;20741;-71
2023/05/01 02:12:35;;;;;;;6.05;3.67;;;;;;;6.82;100.00;95616.09;1029947;28;20065;-71
2023/05/01 02:13:06;;;;;;;5.18;3.85;;;;;;;6.79;100.00;95616.59;1028405;28;20269;-71
2023/05/01 02:13:36;;;;;;;6.53;3.95;;;;;;;6.83;100.00;95625.50;1030059;28;20026;-71
2023/05/01 02:14:08;;;;;;;6.20;4.05;;;;;;;6.83;100.00;95617.69;1025758;28;20274;-71
2023/05/01 02:14:38;;;;;;;5.53;4.45;;;;;;;6.83;100.00;95622.91;1018110;29;20020;-71
2023/05/01 02:15:09;;;;;;;5.53;4.07;;;;;;;6.82;100.00;95621.31;1022063;29;20290;-72
2023/05/01 02:15:39;;;;;;;6.15;4.32;;;;;;;6.80;100.00;95620.75;1021864;29;20050;-71
2023/05/01 02:16:09;;;;;;;6.10;3.95;;;;;;;6.81;100.00;95618.97;1021954;29;20054;-71
2023/05/01 02:16:40;;;;;;;7.18;4.22;;;;;;;6.81;100.00;95624.97;1021890;29;20030;-71
2023/05/01 02:17:10;;;;;;;7.68;4.30;;;;;;;6.79;100.00;95615.81;1024225;28;20018;-70
2023/05/01 02:17:41;;;;;;;6.32;3.90;;;;;;;6.80;100.00;95625.19;1017820;29;20015;-71
2023/05/01 02:18:12;;;;;;;5.88;4.20;;;;;;;6.80;100.00;95620.75;1015136;29;20027;-70
2023/05/01 02:18:42;;;;;;;4.60;4.13;;;;;;;6.80;100.00;95617.38;1017077;29;20548;-70
2023/05/01 02:19:13;;;;;;;4.10;3.67;;;;;;;6.79;100.00;95619.19;1021958;29;20023;-71
2023/05/01 02:19:44;;;;;;;5.22;3.80;;;;;;;6.80;100.00;95617.38;1017897;29;20054;-71
2023/05/01 02:20:14;;;;;;;6.32;4.50;;;;;;;6.81;100.00;95624.97;1018164;29;20260;-71
2023/05/01 02:20:45;;;;;;;6.25;3.83;;;;;;;6.73;100.00;95604.50;1025981;28;20011;-71
2023/05/01 02:21:15;;;;;;;5.53;4.00;;;;;;;6.74;100.00;95613.94;1025838;28;20029;-71
2023/05/01 02:21:45;;;;;;;5.10;3.97;;;;;;;6.77;100.00;95617.84;1018013;29;20015;-71
2023/05/01 02:22:16;;;;;;;6.72;4.20;;;;;;;6.72;100.00;95609.97;1022800;29;20012;-70
2023/05/01 02:22:47;;;;;;;6.95;3.67;;;;;;;6.76;100.00;95611.84;1021747;29;20026;-70
2023/05/01 02:23:17;;;;;;;5.60;3.90;;;;;;;6.69;100.00;95600.03;1025607;28;20061;-70
2023/05/01 02:23:48;;;;;;;7.07;4.20;;;;;;;6.70;100.00;95605.00;1030939;28;20037;-72
2023/05/01 02:24:18;;;;;;;5.53;4.38;;;;;;;6.73;100.00;95616.75;1035409;28;20022;-71
2023/05/01 02:24:49;;;;;;;6.35;4.38;;;;;;;6.74;100.00;95613.94;1027032;28;20026;-68
2023/05/01 02:25:19;;;;;;;6.03;4.15;;;;;;;6.74;100.00;95618.34;1030992;28;20088;-70
2023/05/01 02:25:50;;;;;;;5.13;4.20;;;;;;;6.73;100.00;95612.34;1023344;28;20026;-71
2023/05/01 02:26:21;;;;;;;4.78;4.18;;;;;;;6.67;100.00;95602.84;1026984;28;20031;-70
2023/05/01 02:27:00;;;;;;;5.68;4.00;;;;;;;6.67;100.00;95602.84;1027029;28;20274;-71
2023/05/01 02:27:33;;;;;;;6.45;4.65;;;;;;;6.72;100.00;95610.75;1027409;28;20536;-71
2023/05/01 02:28:13;;;;;;;5.47;3.97;;;;;;;6.72;100.00;95613.38;1027478;28;20453;-71
2023/05/01 02:28:44;;;;;;;5.28;4.47;;;;;;;6.69;100.00;95607.84;1026736;28;20269;-71
2023/05/01 02:29:14;;;;;;;4.97;4.00;;;;;;;6.66;100.00;95609.13;1023195;29;20581;-71
2023/05/01 02:29:45;;;;;;;6.55;3.92;;;;;;;6.69;100.00;95605.25;1031558;28;20026;-71
2023/05/01 02:30:17;;;;;;;8.60;4.10;;;;;;;6.62;100.00;95605.41;1031475;28;20520;-71
2023/05/01 02:30:48;;;;;;;5.13;3.90;;;;;;;6.67;100.00;95613.28;1039011;28;20256;-71
2023/05/01 02:31:18;;;;;;;6.50;4.00;;;;;;;6.63;100.00;95603.59;1031412;28;20265;-71
2023/05/01 02:31:49;;;;;;;6.80;4.25;;;;;;;6.66;100.00;95611.72;1027141;28;20597;-72
2023/05/01 02:32:19;;;;;;;7.18;4.70;;;;;;;6.66;100.00;95609.13;1027272;28;20037;-71
2023/05/01 02:32:50;;;;;;;9.13;4.38;;;;;;;6.61;100.00;95598.63;1023291;29;20027;-71
2023/05/01 02:33:20;;;;;;;5.28;4.38;;;;;;;6.66;100.00;95614.31;1027191;28;20030;-71
2023/05/01 02:33:50;;;;;;;8.70;4.18;;;;;;;6.66;100.00;95609.13;1027339;28;20030;-72
2023/05/01 02:34:21;;;;;;;5.88;4.10;;;;;;;6.62;100.00;95600.19;1031441;28;20031;-71
2023/05/01 02:34:51;;;;;;;6.45;4.20;;;;;;;6.63;100.00;95611.41;1031311;28;20038;-70
2023/05/01 02:35:22;;;;;;;7.05;3.58;;;;;;;6.63;100.00;95604.38;1027062;28;20026;-71
2023/05/01 02:35:52;;;;;;;6.35;4.18;;;;;;;6.63;100.00;95612.19;1023277;29;20031;-71
2023/05/01 02:36:23;;;;;;;6.63;4.10;;;;;;;6.63;100.00;95604.38;1023442;28;20082;-70
2023/05/01 02:36:53;;;;;;;7.93;5.10;;;;;;;6.63;100.00;95606.19;1027489;28;20053;-71
2023/05/01 02:37:24;;;;;;;5.35;3.78;;;;;;;6.65;100.00;95610.16;1031308;28;20093;-71
2023/05/01 02:37:54;;;;;;;6.03;4.50;;;;;;;6.63;100.00;95606.97;1031642;28;20117;-71
2023/05/01 02:38:25;;;;;;;6.35;4.25;;;;;;;6.63;100.00;95606.97;1035405;28;20436;-71